Weather observations for the past three days for
Madera Municipal Airport
Imperial (Metric)
Date Time (pdt) Wind (mph) Vis. (mi.) Weather Sky Cond. Temperature (ºF) Relative Humidity Wind Chill (°F) Heat Index (°F) Pressure Precipitation (in)
Air Dwpt 6 hour altimeter (in) sea level (mb) 1 hr 3 hr 6 hr
Max. Min.
03 23:53 NW 10 10.00 Fair CLR 55.9 44.1 65% 29.93 1013.4
03 22:53 W 13 10.00 Fair CLR 57 44.1 75.9 55.9 62% 29.93 1013.3
03 21:53 W 16 10.00 Fair CLR 57.9 44.1 60% 29.91 1012.6
03 20:53 W 15 G 25 10.00 Fair CLR 60.1 44.1 56% 29.89 1011.8
03 19:53 W 13 10.00 Fair CLR 62.1 46 56% 29.86 1011.0
03 18:53 W 20 G 28 10.00 A Few Clouds FEW070 68 48 49% 29.83 1010.1
03 17:53 NW 12 10.00 A Few Clouds FEW070 72 48.9 44% 29.83 1009.8
03 16:53 N 9 10.00 Partly Cloudy SCT055 73 48 75.9 66 41% 29.83 1009.9
03 15:53 Vrbl 5 10.00 A Few Clouds FEW050 73.9 48.9 41% 29.83 1010.1
03 14:53 W 5 10.00 A Few Clouds FEW055 72 48 43% 29.85 1010.8
03 13:53 S 8 10.00 Fair CLR 73 48.9 43% 29.87 1011.2
03 12:53 SW 8 10.00 Fair CLR 71.1 48 44% 29.88 1011.8
03 11:53 Vrbl 3 10.00 Fair CLR 68 48.9 51% 29.9 1012.5
03 10:53 W 12 10.00 Fair CLR 68 48 68 53.1 49% 29.91 1012.5
03 09:53 NW 13 G 17 10.00 Fair CLR 64 48 56% 29.9 1012.2
03 08:53 NW 12 10.00 Fair CLR 61 48.9 65% 29.9 1012.2
03 07:53 NW 15 10.00 Fair CLR 57.9 50 75% 29.88 1011.5
03 06:53 NW 12 10.00 Fair CLR 54 50 87% 29.85 1010.7
03 05:53 NW 6 10.00 Fair CLR 53.1 48.9 86% 29.83 1010.0
03 04:53 NW 6 10.00 Fair CLR 54 50 64 54 87% 29.82 1009.4
03 03:53 NW 8 10.00 Fair CLR 55 50 83% 29.81 1009.2
03 02:53 NW 9 10.00 Fair CLR 55.9 50 81% 29.8 1009.0
03 01:53 NW 10 10.00 Fair CLR 57 50 78% 29.81 1009.3
03 00:53 W 10 10.00 Fair CLR 59 51.1 75% 29.82 1009.6
02 23:53 NW 13 10.00 Fair CLR 62.1 52 70% 29.81 1009.3
02 22:53 NW 9 10.00 Fair CLR 64 55 86 64 73% 29.82 1009.5
02 21:53 NW 9 10.00 Fair CLR 66.9 55 66% 29.81 1009.2
02 20:53 NW 12 10.00 Fair CLR 69.1 55 61% 29.79 1008.4
02 19:53 NW 10 10.00 Fair CLR 73 57 57% 29.77 1007.8
02 18:53 NW 12 10.00 Fair CLR 79 55.9 45% 80 29.76 1007.4
02 17:53 W 9 10.00 Fair CLR 82.9 55.9 40% 82 29.76 1007.4
02 16:53 W 12 10.00 Fair CLR 84.9 53.1 87.1 75.9 33% 83 29.77 1007.8
02 15:53 NW 10 10.00 Fair CLR 84 55 37% 83 29.79 1008.4
02 14:53 Calm 10.00 Fair CLR 84 48.9 30% 82 29.81 1009.4
02 13:53 Calm 10.00 Fair CLR 84.9 53.1 33% 83 29.84 1010.2
02 12:53 Vrbl 6 10.00 Fair CLR 82.9 55.9 40% 82 29.86 1011.0
02 11:53 W 6 10.00 Fair CLR 80.1 57 45% 80 29.88 1011.4
02 10:53 Vrbl 3 10.00 Fair CLR 75.9 55 75.9 53.1 48% 78 29.89 1011.8
02 09:53 Vrbl 3 10.00 Fair CLR 71.1 55 57% 29.89 1012.0
02 08:53 N 5 10.00 Fair CLR 64.9 53.1 66% 29.9 1012.1
02 07:53 NW 8 10.00 Fair CLR 60.1 54 80% 29.89 1011.9
02 06:53 NW 6 8.00 Fair CLR 55 53.1 93% 29.87 1011.3
02 05:53 W 7 8.00 Fair CLR 54 52 93% 29.85 1010.5
02 04:53 SW 5 10.00 Fair CLR 55.9 54 66 55 93% 29.84 1010.3
02 03:53 NE 5 10.00 Fair CLR 57.9 54 87% 29.85 1010.5
02 02:53 NW 5 10.00 Fair CLR 57.9 55 90% 29.86 1010.7
02 01:53 NW 3 10.00 Fair CLR 59 55 87% 29.87 1011.2
02 00:53 W 7 10.00 Fair CLR 60.1 55.9 86% 29.88 1011.5
01 23:53 NW 7 10.00 Fair CLR 64.9 57 76% 29.87 1011.4
01 22:53 NW 7 10.00 Fair CLR 66 57 88 66 73% 29.86 1011.0
01 21:53 NW 8 10.00 Fair CLR 68 57 68% 29.86 1010.9
01 20:53 NW 7 10.00 Fair CLR 71.1 55.9 59% 29.84 1010.3
01 19:53 NW 5 10.00 Fair CLR 75 53.1 46% 78 29.83 1009.7
01 18:53 NW 10 10.00 Fair CLR 82.9 52 34% 82 29.82 1009.6
01 17:53 N 12 10.00 Fair CLR 86 48.9 28% 83 29.83 1009.8
01 16:53 NW 10 10.00 Fair CLR 88 48 88 75.9 25% 85 29.83 1010.0
01 15:53 W 9 10.00 Fair CLR 87.1 48.9 27% 84 29.85 1010.5
01 14:53 W 8 10.00 Fair CLR 86 52 31% 84 29.88 1011.6
01 13:53 Vrbl 6 10.00 Fair CLR 84 53.1 34% 83 29.89 1012.0
01 12:53 W 8 10.00 Fair CLR 82 52 35% 81 29.91 1012.7
01 11:53 W 7 10.00 Fair CLR 79 51.1 38% 79 29.94 1013.6
01 10:53 W 8 10.00 Fair CLR 75.9 48.9 75.9 51.1 39% 78 29.95 1014.1
01 09:53 W 6 10.00 Fair CLR 73 48.9 43% 29.96 1014.3
01 08:53 NW 5 10.00 Fair CLR 66.9 51.1 57% 29.96 1014.4
01 07:53 W 7 10.00 Fair CLR 60.1 52 75% 29.95 1014.1
01 06:53 Calm 10.00 Fair CLR 55 50 83% 29.93 1013.3
01 05:53 Calm 10.00 Fair CLR 53.1 51.1 93% 29.91 1012.6
01 04:53 Calm 10.00 Fair CLR 54 51.1 64 53.1 90% 29.9 1012.3
01 03:53 Calm 10.00 Fair CLR 55 51.1 87% 29.9 1012.3
01 02:53 NW 3 10.00 Fair CLR 55 51.1 87% 29.89 1012.0
01 01:53 W 6 10.00 Fair CLR 55.9 52 87% 29.9 1012.2
01 00:53 W 3 10.00 Fair CLR 57.9 53.1 84% 29.9 1012.2
Date Time (pdt) Wind (mph) Vis. (mi.) Weather Sky Cond. Air Dwpt Max. Min. Relative Humidity Wind Chill (°F) Heat Index (°F) altimeter (in) sea level (mb) 1 hr 3 hr 6 hr
6 hour
Temperature (ºF) Pressure Precipitation (in)